sensor_id;sensor_type;location;lat;lon;timestamp;P1;P2;P0
62631;PMS5003;48703;51.248;-0.546;2023-05-10T00:00:42;4.50;3.81;
62631;PMS5003;48703;51.248;-0.546;2023-05-10T00:03:43;4.37;3.86;
62631;PMS5003;48703;51.248;-0.546;2023-05-10T00:06:45;5.17;5.01;
62631;PMS5003;48703;51.248;-0.546;2023-05-10T00:09:46;3.80;3.80;
62631;PMS5003;48703;51.248;-0.546;2023-05-10T00:12:48;5.77;4.61;
62631;PMS5003;48703;51.248;-0.546;2023-05-10T00:15:50;4.47;3.53;
62631;PMS5003;48703;51.248;-0.546;2023-05-10T00:18:51;4.49;3.93;
62631;PMS5003;48703;51.248;-0.546;2023-05-10T00:21:53;3.30;3.30;
62631;PMS5003;48703;51.248;-0.546;2023-05-10T00:24:54;4.40;4.23;
62631;PMS5003;48703;51.248;-0.546;2023-05-10T00:27:56;4.91;4.56;
62631;PMS5003;48703;51.248;-0.546;2023-05-10T00:30:58;4.10;3.93;
62631;PMS5003;48703;51.248;-0.546;2023-05-10T00:33:59;4.83;4.17;
62631;PMS5003;48703;51.248;-0.546;2023-05-10T00:37:01;5.27;4.44;
62631;PMS5003;48703;51.248;-0.546;2023-05-10T00:40:02;6.50;6.33;
62631;PMS5003;48703;51.248;-0.546;2023-05-10T00:43:04;5.07;4.43;
62631;PMS5003;48703;51.248;-0.546;2023-05-10T00:46:05;5.33;5.33;
62631;PMS5003;48703;51.248;-0.546;2023-05-10T00:49:07;6.91;5.96;
62631;PMS5003;48703;51.248;-0.546;2023-05-10T00:52:09;5.80;5.80;
62631;PMS5003;48703;51.248;-0.546;2023-05-10T00:55:10;5.77;4.87;
62631;PMS5003;48703;51.248;-0.546;2023-05-10T00:58:12;5.80;5.47;
62631;PMS5003;48703;51.248;-0.546;2023-05-10T01:01:13;8.96;6.71;
62631;PMS5003;48703;51.248;-0.546;2023-05-10T01:04:15;7.61;6.86;
62631;PMS5003;48703;51.248;-0.546;2023-05-10T01:07:17;7.87;7.09;
62631;PMS5003;48703;51.248;-0.546;2023-05-10T01:10:18;8.54;7.43;
62631;PMS5003;48703;51.248;-0.546;2023-05-10T01:13:23;7.29;6.00;
62631;PMS5003;48703;51.248;-0.546;2023-05-10T01:16:21;9.04;8.19;
62631;PMS5003;48703;51.248;-0.546;2023-05-10T01:19:23;6.43;5.94;
62631;PMS5003;48703;51.248;-0.546;2023-05-10T01:22:32;8.01;7.23;
62631;PMS5003;48703;51.248;-0.546;2023-05-10T01:25:32;8.76;8.00;
62631;PMS5003;48703;51.248;-0.546;2023-05-10T01:28:33;9.90;8.34;
62631;PMS5003;48703;51.248;-0.546;2023-05-10T01:31:33;11.19;10.74;
62631;PMS5003;48703;51.248;-0.546;2023-05-10T01:34:32;13.48;11.57;
62631;PMS5003;48703;51.248;-0.546;2023-05-10T01:37:36;9.86;9.77;
62631;PMS5003;48703;51.248;-0.546;2023-05-10T01:40:36;11.11;9.79;
62631;PMS5003;48703;51.248;-0.546;2023-05-10T01:43:37;13.44;12.33;
62631;PMS5003;48703;51.248;-0.546;2023-05-10T01:46:37;10.14;9.49;
62631;PMS5003;48703;51.248;-0.546;2023-05-10T01:49:40;13.10;10.93;
62631;PMS5003;48703;51.248;-0.546;2023-05-10T01:52:41;11.09;10.25;
62631;PMS5003;48703;51.248;-0.546;2023-05-10T01:55:43;12.26;10.04;
62631;PMS5003;48703;51.248;-0.546;2023-05-10T01:58:43;12.19;10.81;
62631;PMS5003;48703;51.248;-0.546;2023-05-10T02:01:44;15.01;13.17;
62631;PMS5003;48703;51.248;-0.546;2023-05-10T02:04:45;12.46;11.11;
62631;PMS5003;48703;51.248;-0.546;2023-05-10T02:07:47;13.39;12.41;
62631;PMS5003;48703;51.248;-0.546;2023-05-10T02:10:49;13.59;11.34;
62631;PMS5003;48703;51.248;-0.546;2023-05-10T02:13:49;13.00;12.04;
62631;PMS5003;48703;51.248;-0.546;2023-05-10T02:16:51;10.89;9.90;
62631;PMS5003;48703;51.248;-0.546;2023-05-10T02:19:53;13.36;11.90;
62631;PMS5003;48703;51.248;-0.546;2023-05-10T02:22:55;11.70;10.19;
62631;PMS5003;48703;51.248;-0.546;2023-05-10T02:25:56;13.94;11.03;
62631;PMS5003;48703;51.248;-0.546;2023-05-10T02:28:56;13.32;12.29;
62631;PMS5003;48703;51.248;-0.546;2023-05-10T02:31:58;14.14;12.13;
62631;PMS5003;48703;51.248;-0.546;2023-05-10T02:34:59;13.80;12.23;
62631;PMS5003;48703;51.248;-0.546;2023-05-10T02:38:01;13.83;12.26;
62631;PMS5003;48703;51.248;-0.546;2023-05-10T02:41:02;13.00;11.89;
62631;PMS5003;48703;51.248;-0.546;2023-05-10T02:44:03;14.76;12.90;
62631;PMS5003;48703;51.248;-0.546;2023-05-10T02:47:05;13.77;12.77;
62631;PMS5003;48703;51.248;-0.546;2023-05-10T02:50:07;15.24;13.60;
62631;PMS5003;48703;51.248;-0.546;2023-05-10T02:53:09;13.84;12.89;
62631;PMS5003;48703;51.248;-0.546;2023-05-10T02:56:10;18.37;13.79;
62631;PMS5003;48703;51.248;-0.546;2023-05-10T02:59:10;13.20;12.01;
62631;PMS5003;48703;51.248;-0.546;2023-05-10T03:02:12;15.65;13.96;
62631;PMS5003;48703;51.248;-0.546;2023-05-10T03:05:13;15.64;13.86;
62631;PMS5003;48703;51.248;-0.546;2023-05-10T03:08:15;14.93;12.16;
62631;PMS5003;48703;51.248;-0.546;2023-05-10T03:11:28;16.14;13.81;
62631;PMS5003;48703;51.248;-0.546;2023-05-10T03:14:21;12.80;10.83;
62631;PMS5003;48703;51.248;-0.546;2023-05-10T03:17:20;16.00;13.74;
62631;PMS5003;48703;51.248;-0.546;2023-05-10T03:20:21;15.06;12.45;
62631;PMS5003;48703;51.248;-0.546;2023-05-10T03:23:22;15.40;13.39;
62631;PMS5003;48703;51.248;-0.546;2023-05-10T03:26:23;15.41;13.80;
62631;PMS5003;48703;51.248;-0.546;2023-05-10T03:29:24;12.80;12.47;
62631;PMS5003;48703;51.248;-0.546;2023-05-10T03:32:25;14.76;12.83;
62631;PMS5003;48703;51.248;-0.546;2023-05-10T03:35:27;13.46;11.90;
62631;PMS5003;48703;51.248;-0.546;2023-05-10T03:38:28;13.83;12.47;
62631;PMS5003;48703;51.248;-0.546;2023-05-10T03:41:30;12.97;10.73;
62631;PMS5003;48703;51.248;-0.546;2023-05-10T03:44:31;13.36;12.53;
62631;PMS5003;48703;51.248;-0.546;2023-05-10T03:47:32;14.60;12.63;
62631;PMS5003;48703;51.248;-0.546;2023-05-10T03:50:34;12.03;10.96;
62631;PMS5003;48703;51.248;-0.546;2023-05-10T03:53:36;14.06;13.17;
62631;PMS5003;48703;51.248;-0.546;2023-05-10T03:56:37;14.87;13.16;
62631;PMS5003;48703;51.248;-0.546;2023-05-10T03:59:39;13.90;12.33;
62631;PMS5003;48703;51.248;-0.546;2023-05-10T04:02:41;13.36;12.07;
62631;PMS5003;48703;51.248;-0.546;2023-05-10T04:05:43;14.34;12.54;
62631;PMS5003;48703;51.248;-0.546;2023-05-10T04:08:44;15.62;12.84;
62631;PMS5003;48703;51.248;-0.546;2023-05-10T04:11:45;14.06;11.77;
62631;PMS5003;48703;51.248;-0.546;2023-05-10T04:14:46;11.59;10.67;
62631;PMS5003;48703;51.248;-0.546;2023-05-10T04:17:47;13.91;11.57;
62631;PMS5003;48703;51.248;-0.546;2023-05-10T04:20:49;10.09;9.24;
62631;PMS5003;48703;51.248;-0.546;2023-05-10T04:23:50;11.83;10.90;
62631;PMS5003;48703;51.248;-0.546;2023-05-10T04:26:52;11.30;10.25;
62631;PMS5003;48703;51.248;-0.546;2023-05-10T04:29:53;12.87;12.03;
62631;PMS5003;48703;51.248;-0.546;2023-05-10T04:32:55;14.00;11.67;
62631;PMS5003;48703;51.248;-0.546;2023-05-10T04:35:56;14.56;12.11;
62631;PMS5003;48703;51.248;-0.546;2023-05-10T04:38:57;13.30;11.91;
62631;PMS5003;48703;51.248;-0.546;2023-05-10T04:41:59;10.24;9.57;
62631;PMS5003;48703;51.248;-0.546;2023-05-10T04:45:00;13.90;11.69;
62631;PMS5003;48703;51.248;-0.546;2023-05-10T04:48:02;11.56;10.20;
62631;PMS5003;48703;51.248;-0.546;2023-05-10T04:51:04;12.63;9.54;
62631;PMS5003;48703;51.248;-0.546;2023-05-10T04:54:05;11.69;11.21;
62631;PMS5003;48703;51.248;-0.546;2023-05-10T04:57:07;10.94;9.77;
62631;PMS5003;48703;51.248;-0.546;2023-05-10T05:00:09;10.03;8.66;
62631;PMS5003;48703;51.248;-0.546;2023-05-10T05:03:10;10.20;9.50;
62631;PMS5003;48703;51.248;-0.546;2023-05-10T05:06:11;13.41;11.97;
62631;PMS5003;48703;51.248;-0.546;2023-05-10T05:09:13;10.79;10.19;
62631;PMS5003;48703;51.248;-0.546;2023-05-10T05:12:14;13.70;11.54;
62631;PMS5003;48703;51.248;-0.546;2023-05-10T05:15:16;13.49;11.70;
62631;PMS5003;48703;51.248;-0.546;2023-05-10T05:18:17;14.41;12.94;
62631;PMS5003;48703;51.248;-0.546;2023-05-10T05:21:19;13.24;12.56;
62631;PMS5003;48703;51.248;-0.546;2023-05-10T05:24:20;16.58;14.06;
62631;PMS5003;48703;51.248;-0.546;2023-05-10T05:27:22;13.67;11.41;
62631;PMS5003;48703;51.248;-0.546;2023-05-10T05:30:24;14.66;12.74;
62631;PMS5003;48703;51.248;-0.546;2023-05-10T05:33:25;14.63;12.69;
62631;PMS5003;48703;51.248;-0.546;2023-05-10T05:36:27;13.46;12.26;
62631;PMS5003;48703;51.248;-0.546;2023-05-10T05:39:28;14.69;13.56;
62631;PMS5003;48703;51.248;-0.546;2023-05-10T05:42:30;16.77;15.16;
62631;PMS5003;48703;51.248;-0.546;2023-05-10T05:45:31;16.86;14.73;
62631;PMS5003;48703;51.248;-0.546;2023-05-10T05:48:33;16.00;13.46;
62631;PMS5003;48703;51.248;-0.546;2023-05-10T05:51:34;17.74;15.46;
62631;PMS5003;48703;51.248;-0.546;2023-05-10T05:54:36;14.90;14.21;
62631;PMS5003;48703;51.248;-0.546;2023-05-10T05:57:37;16.96;15.13;
62631;PMS5003;48703;51.248;-0.546;2023-05-10T06:00:38;17.99;17.04;
62631;PMS5003;48703;51.248;-0.546;2023-05-10T06:03:40;17.96;16.34;
62631;PMS5003;48703;51.248;-0.546;2023-05-10T06:06:41;20.12;17.87;
62631;PMS5003;48703;51.248;-0.546;2023-05-10T06:09:42;17.46;16.25;
62631;PMS5003;48703;51.248;-0.546;2023-05-10T06:12:44;21.54;19.75;
62631;PMS5003;48703;51.248;-0.546;2023-05-10T06:15:45;20.46;18.51;
62631;PMS5003;48703;51.248;-0.546;2023-05-10T06:18:47;22.64;19.38;
62631;PMS5003;48703;51.248;-0.546;2023-05-10T06:21:48;20.06;18.48;
62631;PMS5003;48703;51.248;-0.546;2023-05-10T06:24:49;21.59;18.33;
62631;PMS5003;48703;51.248;-0.546;2023-05-10T06:27:50;21.35;18.12;
62631;PMS5003;48703;51.248;-0.546;2023-05-10T06:30:52;20.90;19.32;
62631;PMS5003;48703;51.248;-0.546;2023-05-10T06:33:54;18.99;18.09;
62631;PMS5003;48703;51.248;-0.546;2023-05-10T06:36:56;20.97;19.43;
62631;PMS5003;48703;51.248;-0.546;2023-05-10T06:39:58;21.53;17.77;
62631;PMS5003;48703;51.248;-0.546;2023-05-10T06:43:00;23.93;20.22;
62631;PMS5003;48703;51.248;-0.546;2023-05-10T06:46:02;20.03;17.64;
62631;PMS5003;48703;51.248;-0.546;2023-05-10T06:49:03;25.12;21.25;
62631;PMS5003;48703;51.248;-0.546;2023-05-10T06:52:04;19.97;18.89;
62631;PMS5003;48703;51.248;-0.546;2023-05-10T06:55:06;26.13;22.45;
62631;PMS5003;48703;51.248;-0.546;2023-05-10T06:58:07;19.72;18.32;
62631;PMS5003;48703;51.248;-0.546;2023-05-10T07:01:09;22.09;19.61;
62631;PMS5003;48703;51.248;-0.546;2023-05-10T07:04:11;22.87;19.87;
62631;PMS5003;48703;51.248;-0.546;2023-05-10T07:07:13;22.79;21.10;
62631;PMS5003;48703;51.248;-0.546;2023-05-10T07:10:14;24.64;19.67;
62631;PMS5003;48703;51.248;-0.546;2023-05-10T07:13:15;25.23;22.29;
62631;PMS5003;48703;51.248;-0.546;2023-05-10T07:16:16;22.60;19.61;
62631;PMS5003;48703;51.248;-0.546;2023-05-10T07:19:17;25.23;22.16;
62631;PMS5003;48703;51.248;-0.546;2023-05-10T07:22:19;22.21;20.66;
62631;PMS5003;48703;51.248;-0.546;2023-05-10T07:25:21;23.94;20.03;
62631;PMS5003;48703;51.248;-0.546;2023-05-10T07:28:22;22.32;19.68;
62631;PMS5003;48703;51.248;-0.546;2023-05-10T07:31:23;21.74;19.29;
62631;PMS5003;48703;51.248;-0.546;2023-05-10T07:34:26;26.77;23.25;
62631;PMS5003;48703;51.248;-0.546;2023-05-10T07:37:27;25.07;21.70;
62631;PMS5003;48703;51.248;-0.546;2023-05-10T07:40:29;25.12;21.91;
62631;PMS5003;48703;51.248;-0.546;2023-05-10T07:43:31;25.19;20.41;
62631;PMS5003;48703;51.248;-0.546;2023-05-10T07:46:32;26.87;22.79;
62631;PMS5003;48703;51.248;-0.546;2023-05-10T07:49:33;22.81;20.76;
62631;PMS5003;48703;51.248;-0.546;2023-05-10T07:52:35;24.14;21.75;
62631;PMS5003;48703;51.248;-0.546;2023-05-10T07:55:37;21.45;19.61;
62631;PMS5003;48703;51.248;-0.546;2023-05-10T07:58:39;22.54;20.58;
62631;PMS5003;48703;51.248;-0.546;2023-05-10T08:01:40;20.94;19.55;
62631;PMS5003;48703;51.248;-0.546;2023-05-10T08:04:42;24.61;21.83;
62631;PMS5003;48703;51.248;-0.546;2023-05-10T08:07:43;21.23;19.84;
62631;PMS5003;48703;51.248;-0.546;2023-05-10T08:10:44;24.99;21.54;
62631;PMS5003;48703;51.248;-0.546;2023-05-10T08:13:46;20.71;18.84;
62631;PMS5003;48703;51.248;-0.546;2023-05-10T08:16:47;22.79;19.24;
62631;PMS5003;48703;51.248;-0.546;2023-05-10T08:19:48;24.75;21.26;
62631;PMS5003;48703;51.248;-0.546;2023-05-10T08:22:49;20.23;17.78;
62631;PMS5003;48703;51.248;-0.546;2023-05-10T08:25:51;20.20;16.93;
62631;PMS5003;48703;51.248;-0.546;2023-05-10T08:28:52;17.03;14.96;
62631;PMS5003;48703;51.248;-0.546;2023-05-10T08:31:54;19.90;17.17;
62631;PMS5003;48703;51.248;-0.546;2023-05-10T08:34:55;15.36;13.59;
62631;PMS5003;48703;51.248;-0.546;2023-05-10T08:37:57;16.53;14.87;
62631;PMS5003;48703;51.248;-0.546;2023-05-10T08:40:58;15.09;13.17;
62631;PMS5003;48703;51.248;-0.546;2023-05-10T08:44:00;18.03;15.16;
62631;PMS5003;48703;51.248;-0.546;2023-05-10T08:47:03;16.30;13.87;
62631;PMS5003;48703;51.248;-0.546;2023-05-10T08:50:04;15.50;14.60;
62631;PMS5003;48703;51.248;-0.546;2023-05-10T08:53:06;15.74;14.53;
62631;PMS5003;48703;51.248;-0.546;2023-05-10T08:56:06;13.90;13.38;
62631;PMS5003;48703;51.248;-0.546;2023-05-10T08:59:08;13.97;12.50;
62631;PMS5003;48703;51.248;-0.546;2023-05-10T09:02:10;14.74;12.61;
62631;PMS5003;48703;51.248;-0.546;2023-05-10T09:05:11;12.80;12.36;
62631;PMS5003;48703;51.248;-0.546;2023-05-10T09:08:12;13.32;11.62;
62631;PMS5003;48703;51.248;-0.546;2023-05-10T09:11:14;9.74;9.43;
62631;PMS5003;48703;51.248;-0.546;2023-05-10T09:14:15;12.13;11.37;
62631;PMS5003;48703;51.248;-0.546;2023-05-10T09:17:16;11.17;10.73;
62631;PMS5003;48703;51.248;-0.546;2023-05-10T09:20:18;13.10;10.32;
62631;PMS5003;48703;51.248;-0.546;2023-05-10T09:23:19;11.53;9.30;
62631;PMS5003;48703;51.248;-0.546;2023-05-10T09:26:22;11.42;10.14;
62631;PMS5003;48703;51.248;-0.546;2023-05-10T09:29:22;9.07;8.64;
62631;PMS5003;48703;51.248;-0.546;2023-05-10T09:32:36;9.54;9.47;
62631;PMS5003;48703;51.248;-0.546;2023-05-10T09:35:26;8.89;8.09;
62631;PMS5003;48703;51.248;-0.546;2023-05-10T09:38:26;11.39;9.99;
62631;PMS5003;48703;51.248;-0.546;2023-05-10T09:41:28;13.34;10.24;
62631;PMS5003;48703;51.248;-0.546;2023-05-10T09:44:30;9.63;8.53;
62631;PMS5003;48703;51.248;-0.546;2023-05-10T09:47:31;10.00;8.53;
62631;PMS5003;48703;51.248;-0.546;2023-05-10T09:50:32;10.43;9.76;
62631;PMS5003;48703;51.248;-0.546;2023-05-10T09:53:34;9.97;8.57;
62631;PMS5003;48703;51.248;-0.546;2023-05-10T09:56:36;8.84;7.97;
62631;PMS5003;48703;51.248;-0.546;2023-05-10T09:59:38;12.77;9.31;
62631;PMS5003;48703;51.248;-0.546;2023-05-10T10:02:38;7.77;7.04;
62631;PMS5003;48703;51.248;-0.546;2023-05-10T10:05:41;9.83;7.16;
62631;PMS5003;48703;51.248;-0.546;2023-05-10T10:08:42;9.21;9.20;
62631;PMS5003;48703;51.248;-0.546;2023-05-10T10:11:43;10.19;9.03;
62631;PMS5003;48703;51.248;-0.546;2023-05-10T10:14:45;8.56;7.71;
62631;PMS5003;48703;51.248;-0.546;2023-05-10T10:17:46;7.57;6.37;
62631;PMS5003;48703;51.248;-0.546;2023-05-10T10:20:48;7.73;6.76;
62631;PMS5003;48703;51.248;-0.546;2023-05-10T10:23:49;8.74;7.54;
62631;PMS5003;48703;51.248;-0.546;2023-05-10T10:26:51;9.11;8.31;
62631;PMS5003;48703;51.248;-0.546;2023-05-10T10:29:56;9.83;8.54;
62631;PMS5003;48703;51.248;-0.546;2023-05-10T10:32:59;8.63;8.16;
62631;PMS5003;48703;51.248;-0.546;2023-05-10T10:35:55;11.07;10.19;
62631;PMS5003;48703;51.248;-0.546;2023-05-10T10:38:58;8.77;8.10;
62631;PMS5003;48703;51.248;-0.546;2023-05-10T10:41:58;8.63;8.24;
62631;PMS5003;48703;51.248;-0.546;2023-05-10T10:45:11;9.03;7.53;
62631;PMS5003;48703;51.248;-0.546;2023-05-10T10:48:33;10.07;8.11;
62631;PMS5003;48703;51.248;-0.546;2023-05-10T10:51:02;10.31;8.94;
62631;PMS5003;48703;51.248;-0.546;2023-05-10T10:54:08;8.96;8.14;
62631;PMS5003;48703;51.248;-0.546;2023-05-10T10:57:10;9.37;8.29;
62631;PMS5003;48703;51.248;-0.546;2023-05-10T11:00:23;9.21;8.04;
62631;PMS5003;48703;51.248;-0.546;2023-05-10T11:03:08;10.00;8.46;
62631;PMS5003;48703;51.248;-0.546;2023-05-10T11:06:09;8.76;8.03;
62631;PMS5003;48703;51.248;-0.546;2023-05-10T11:09:11;10.09;8.86;
62631;PMS5003;48703;51.248;-0.546;2023-05-10T11:12:12;7.63;7.50;
62631;PMS5003;48703;51.248;-0.546;2023-05-10T11:15:14;8.37;7.44;
62631;PMS5003;48703;51.248;-0.546;2023-05-10T11:18:17;9.54;8.56;
62631;PMS5003;48703;51.248;-0.546;2023-05-10T11:21:16;8.59;7.17;
62631;PMS5003;48703;51.248;-0.546;2023-05-10T11:24:18;8.44;7.53;
62631;PMS5003;48703;51.248;-0.546;2023-05-10T11:27:19;6.16;6.16;
62631;PMS5003;48703;51.248;-0.546;2023-05-10T11:30:20;7.83;5.09;
62631;PMS5003;48703;51.248;-0.546;2023-05-10T11:33:22;6.81;6.20;
62631;PMS5003;48703;51.248;-0.546;2023-05-10T11:36:24;7.47;6.43;
62631;PMS5003;48703;51.248;-0.546;2023-05-10T11:39:25;7.36;7.14;
62631;PMS5003;48703;51.248;-0.546;2023-05-10T11:42:27;6.11;5.56;
62631;PMS5003;48703;51.248;-0.546;2023-05-10T11:45:27;6.60;6.11;
62631;PMS5003;48703;51.248;-0.546;2023-05-10T11:48:29;7.39;6.29;
62631;PMS5003;48703;51.248;-0.546;2023-05-10T11:51:32;7.44;5.87;
62631;PMS5003;48703;51.248;-0.546;2023-05-10T11:54:32;5.69;5.39;
62631;PMS5003;48703;51.248;-0.546;2023-05-10T11:57:33;6.46;6.27;
62631;PMS5003;48703;51.248;-0.546;2023-05-10T12:00:34;5.64;4.40;
62631;PMS5003;48703;51.248;-0.546;2023-05-10T12:03:36;7.40;5.79;
62631;PMS5003;48703;51.248;-0.546;2023-05-10T12:06:39;7.19;5.94;
62631;PMS5003;48703;51.248;-0.546;2023-05-10T12:09:42;6.19;5.71;
62631;PMS5003;48703;51.248;-0.546;2023-05-10T12:12:41;4.56;3.87;
62631;PMS5003;48703;51.248;-0.546;2023-05-10T12:15:42;3.19;3.17;
62631;PMS5003;48703;51.248;-0.546;2023-05-10T12:18:44;4.10;3.54;
62631;PMS5003;48703;51.248;-0.546;2023-05-10T12:21:45;3.99;3.61;
62631;PMS5003;48703;51.248;-0.546;2023-05-10T12:24:46;3.74;3.34;
62631;PMS5003;48703;51.248;-0.546;2023-05-10T12:27:48;3.01;2.59;
62631;PMS5003;48703;51.248;-0.546;2023-05-10T12:30:49;4.77;4.11;
62631;PMS5003;48703;51.248;-0.546;2023-05-10T12:33:50;3.21;3.21;
62631;PMS5003;48703;51.248;-0.546;2023-05-10T12:36:52;4.71;3.53;
62631;PMS5003;48703;51.248;-0.546;2023-05-10T12:39:53;4.36;3.57;
62631;PMS5003;48703;51.248;-0.546;2023-05-10T12:42:55;4.87;3.50;
62631;PMS5003;48703;51.248;-0.546;2023-05-10T12:45:57;3.83;3.83;
62631;PMS5003;48703;51.248;-0.546;2023-05-10T12:48:58;5.09;4.74;
62631;PMS5003;48703;51.248;-0.546;2023-05-10T12:51:59;4.67;3.59;
62631;PMS5003;48703;51.248;-0.546;2023-05-10T12:55:01;2.70;2.56;
62631;PMS5003;48703;51.248;-0.546;2023-05-10T12:58:02;3.43;2.57;
62631;PMS5003;48703;51.248;-0.546;2023-05-10T13:01:04;1.39;1.20;
62631;PMS5003;48703;51.248;-0.546;2023-05-10T13:04:05;1.79;1.40;
62631;PMS5003;48703;51.248;-0.546;2023-05-10T13:07:07;1.64;1.64;
62631;PMS5003;48703;51.248;-0.546;2023-05-10T13:10:08;2.73;2.21;
62631;PMS5003;48703;51.248;-0.546;2023-05-10T13:13:10;2.50;2.37;
62631;PMS5003;48703;51.248;-0.546;2023-05-10T13:16:11;3.04;2.57;
62631;PMS5003;48703;51.248;-0.546;2023-05-10T13:19:13;2.56;2.56;
62631;PMS5003;48703;51.248;-0.546;2023-05-10T13:22:14;5.54;4.44;
62631;PMS5003;48703;51.248;-0.546;2023-05-10T13:25:16;3.94;3.69;
62631;PMS5003;48703;51.248;-0.546;2023-05-10T13:28:17;3.31;3.31;
62631;PMS5003;48703;51.248;-0.546;2023-05-10T13:31:18;4.16;4.16;
62631;PMS5003;48703;51.248;-0.546;2023-05-10T13:34:20;4.50;3.11;
62631;PMS5003;48703;51.248;-0.546;2023-05-10T13:37:22;2.77;2.39;
62631;PMS5003;48703;51.248;-0.546;2023-05-10T13:40:23;3.63;3.20;
62631;PMS5003;48703;51.248;-0.546;2023-05-10T13:43:24;2.96;2.63;
62631;PMS5003;48703;51.248;-0.546;2023-05-10T13:46:26;4.83;4.53;
62631;PMS5003;48703;51.248;-0.546;2023-05-10T13:49:27;3.34;3.23;
62631;PMS5003;48703;51.248;-0.546;2023-05-10T13:52:29;5.64;5.04;
62631;PMS5003;48703;51.248;-0.546;2023-05-10T13:55:30;4.61;4.07;
62631;PMS5003;48703;51.248;-0.546;2023-05-10T13:58:32;3.73;2.89;
62631;PMS5003;48703;51.248;-0.546;2023-05-10T14:01:33;3.07;2.64;
62631;PMS5003;48703;51.248;-0.546;2023-05-10T14:04:35;3.34;2.06;
62631;PMS5003;48703;51.248;-0.546;2023-05-10T14:07:37;2.59;2.37;
62631;PMS5003;48703;51.248;-0.546;2023-05-10T14:10:38;1.89;1.89;
62631;PMS5003;48703;51.248;-0.546;2023-05-10T14:13:39;1.97;1.53;
62631;PMS5003;48703;51.248;-0.546;2023-05-10T14:16:42;2.06;1.94;
62631;PMS5003;48703;51.248;-0.546;2023-05-10T14:19:42;3.87;2.29;
62631;PMS5003;48703;51.248;-0.546;2023-05-10T14:22:44;3.16;2.34;
62631;PMS5003;48703;51.248;-0.546;2023-05-10T14:25:45;2.50;2.41;
62631;PMS5003;48703;51.248;-0.546;2023-05-10T14:28:47;1.80;1.80;
62631;PMS5003;48703;51.248;-0.546;2023-05-10T14:31:49;2.96;2.69;
62631;PMS5003;48703;51.248;-0.546;2023-05-10T14:34:50;4.06;2.87;
62631;PMS5003;48703;51.248;-0.546;2023-05-10T14:37:51;4.31;3.59;
62631;PMS5003;48703;51.248;-0.546;2023-05-10T14:40:53;3.31;3.31;
62631;PMS5003;48703;51.248;-0.546;2023-05-10T14:43:54;3.67;3.63;
62631;PMS5003;48703;51.248;-0.546;2023-05-10T14:46:55;2.80;2.80;
62631;PMS5003;48703;51.248;-0.546;2023-05-10T14:49:57;3.86;2.87;
62631;PMS5003;48703;51.248;-0.546;2023-05-10T14:52:58;3.29;3.13;
62631;PMS5003;48703;51.248;-0.546;2023-05-10T14:56:00;3.37;3.13;
62631;PMS5003;48703;51.248;-0.546;2023-05-10T14:59:01;3.66;3.49;
62631;PMS5003;48703;51.248;-0.546;2023-05-10T15:02:03;4.42;4.01;
62631;PMS5003;48703;51.248;-0.546;2023-05-10T15:05:04;2.06;1.50;
62631;PMS5003;48703;51.248;-0.546;2023-05-10T15:08:06;2.49;2.27;
62631;PMS5003;48703;51.248;-0.546;2023-05-10T15:11:07;2.53;2.53;
62631;PMS5003;48703;51.248;-0.546;2023-05-10T15:14:08;2.71;2.71;
62631;PMS5003;48703;51.248;-0.546;2023-05-10T15:17:10;2.40;2.10;
62631;PMS5003;48703;51.248;-0.546;2023-05-10T15:20:11;2.76;2.50;
62631;PMS5003;48703;51.248;-0.546;2023-05-10T15:23:13;4.91;3.56;
62631;PMS5003;48703;51.248;-0.546;2023-05-10T15:26:14;3.14;2.70;
62631;PMS5003;48703;51.248;-0.546;2023-05-10T15:29:15;3.79;3.09;
62631;PMS5003;48703;51.248;-0.546;2023-05-10T15:32:17;4.39;4.07;
62631;PMS5003;48703;51.248;-0.546;2023-05-10T15:35:18;5.06;5.06;
62631;PMS5003;48703;51.248;-0.546;2023-05-10T15:38:20;5.41;4.90;
62631;PMS5003;48703;51.248;-0.546;2023-05-10T15:41:21;4.66;4.14;
62631;PMS5003;48703;51.248;-0.546;2023-05-10T15:44:23;3.70;3.69;
62631;PMS5003;48703;51.248;-0.546;2023-05-10T15:47:25;4.66;3.76;
62631;PMS5003;48703;51.248;-0.546;2023-05-10T15:50:26;3.93;3.71;
62631;PMS5003;48703;51.248;-0.546;2023-05-10T15:53:27;4.04;3.53;
62631;PMS5003;48703;51.248;-0.546;2023-05-10T15:56:29;4.54;4.36;
62631;PMS5003;48703;51.248;-0.546;2023-05-10T15:59:31;6.17;5.41;
62631;PMS5003;48703;51.248;-0.546;2023-05-10T16:02:32;5.37;4.76;
62631;PMS5003;48703;51.248;-0.546;2023-05-10T16:05:33;4.73;4.07;
62631;PMS5003;48703;51.248;-0.546;2023-05-10T16:08:35;5.17;4.57;
62631;PMS5003;48703;51.248;-0.546;2023-05-10T16:11:36;5.36;4.40;
62631;PMS5003;48703;51.248;-0.546;2023-05-10T16:14:38;4.84;4.84;
62631;PMS5003;48703;51.248;-0.546;2023-05-10T16:17:39;5.01;4.87;
62631;PMS5003;48703;51.248;-0.546;2023-05-10T16:20:41;4.50;4.44;
62631;PMS5003;48703;51.248;-0.546;2023-05-10T16:23:42;6.60;5.11;
62631;PMS5003;48703;51.248;-0.546;2023-05-10T16:26:44;5.00;4.74;
62631;PMS5003;48703;51.248;-0.546;2023-05-10T16:29:45;4.97;3.70;
62631;PMS5003;48703;51.248;-0.546;2023-05-10T16:32:47;4.86;4.24;
62631;PMS5003;48703;51.248;-0.546;2023-05-10T16:35:48;3.79;2.67;
62631;PMS5003;48703;51.248;-0.546;2023-05-10T16:38:49;3.04;2.93;
62631;PMS5003;48703;51.248;-0.546;2023-05-10T16:41:51;3.93;3.01;
62631;PMS5003;48703;51.248;-0.546;2023-05-10T16:44:53;5.34;3.57;
62631;PMS5003;48703;51.248;-0.546;2023-05-10T16:47:54;3.61;3.01;
62631;PMS5003;48703;51.248;-0.546;2023-05-10T16:50:55;3.39;2.44;
62631;PMS5003;48703;51.248;-0.546;2023-05-10T16:53:57;3.49;2.97;
62631;PMS5003;48703;51.248;-0.546;2023-05-10T16:56:58;3.76;3.76;
62631;PMS5003;48703;51.248;-0.546;2023-05-10T17:00:00;2.63;2.63;
62631;PMS5003;48703;51.248;-0.546;2023-05-10T17:03:01;3.90;3.36;
62631;PMS5003;48703;51.248;-0.546;2023-05-10T17:06:04;3.19;3.16;
62631;PMS5003;48703;51.248;-0.546;2023-05-10T17:09:04;2.73;2.73;
62631;PMS5003;48703;51.248;-0.546;2023-05-10T17:12:06;3.04;2.53;
62631;PMS5003;48703;51.248;-0.546;2023-05-10T17:15:07;2.83;2.70;
62631;PMS5003;48703;51.248;-0.546;2023-05-10T17:18:08;2.76;2.03;
62631;PMS5003;48703;51.248;-0.546;2023-05-10T17:21:10;3.34;3.33;
62631;PMS5003;48703;51.248;-0.546;2023-05-10T17:24:12;3.44;2.61;
62631;PMS5003;48703;51.248;-0.546;2023-05-10T17:27:13;3.16;2.34;
62631;PMS5003;48703;51.248;-0.546;2023-05-10T17:30:14;2.56;1.90;
62631;PMS5003;48703;51.248;-0.546;2023-05-10T17:33:16;2.43;1.74;
62631;PMS5003;48703;51.248;-0.546;2023-05-10T17:36:17;2.06;2.06;
62631;PMS5003;48703;51.248;-0.546;2023-05-10T17:39:19;3.74;3.74;
62631;PMS5003;48703;51.248;-0.546;2023-05-10T17:42:20;4.36;3.39;
62631;PMS5003;48703;51.248;-0.546;2023-05-10T17:45:22;3.41;2.56;
62631;PMS5003;48703;51.248;-0.546;2023-05-10T17:48:23;3.06;2.96;
62631;PMS5003;48703;51.248;-0.546;2023-05-10T17:51:25;3.80;3.80;
62631;PMS5003;48703;51.248;-0.546;2023-05-10T17:54:26;1.44;0.97;
62631;PMS5003;48703;51.248;-0.546;2023-05-10T17:57:28;1.19;1.17;
62631;PMS5003;48703;51.248;-0.546;2023-05-10T18:00:29;1.14;0.76;
62631;PMS5003;48703;51.248;-0.546;2023-05-10T18:03:30;1.53;1.31;
62631;PMS5003;48703;51.248;-0.546;2023-05-10T18:06:34;1.11;1.11;
62631;PMS5003;48703;51.248;-0.546;2023-05-10T18:09:33;1.93;1.76;
62631;PMS5003;48703;51.248;-0.546;2023-05-10T18:12:35;1.63;1.63;
62631;PMS5003;48703;51.248;-0.546;2023-05-10T18:15:36;1.87;1.64;